createdAt,value
2023-04-14T00:00:37.142Z,97666.91
2023-04-14T00:03:04.486Z,97658.19
2023-04-14T00:05:32.366Z,97665.91
2023-04-14T00:07:59.454Z,97659.97
2023-04-14T00:10:26.929Z,97667.91
2023-04-14T00:12:55.565Z,97670.59
2023-04-14T00:15:22.311Z,97669.78
2023-04-14T00:17:49.079Z,97671.44
2023-04-14T00:20:16.118Z,97666.09
2023-04-14T00:22:42.911Z,97671.25
2023-04-14T00:25:09.868Z,97672.94
2023-04-14T00:27:36.517Z,97665.03
2023-04-14T00:30:03.568Z,97676.31
2023-04-14T00:32:30.407Z,97677.19
2023-04-14T00:34:57.197Z,97672.84
2023-04-14T00:37:24.375Z,97679.72
2023-04-14T00:39:50.924Z,97683.19
2023-04-14T00:42:17.552Z,97679.66
2023-04-14T00:44:44.498Z,97681.41
2023-04-14T00:47:11.561Z,97679.69
2023-04-14T00:49:38.454Z,97680.63
2023-04-14T00:52:05.953Z,97683.22
2023-04-14T00:54:34.534Z,97690.41
2023-04-14T00:57:02.937Z,97691.25
2023-04-14T00:59:30.075Z,97692.97
2023-04-14T01:01:57.057Z,97695.56
2023-04-14T01:04:24.817Z,97696.50
2023-04-14T01:06:54.593Z,97691.25
2023-04-14T01:09:21.516Z,97690.38
2023-04-14T01:12:16.503Z,97699.13
2023-04-14T01:14:55.593Z,97698.22
2023-04-14T01:17:39.505Z,97693.81
2023-04-14T01:20:17.128Z,97699.78
2023-04-14T01:22:49.303Z,97700.63
2023-04-14T01:25:34.224Z,97698.88
2023-04-14T01:28:29.980Z,97697.22
2023-04-14T01:31:15.023Z,97696.31
2023-04-14T01:33:44.121Z,97698.00
2023-04-14T01:36:13.988Z,97696.28
2023-04-14T01:38:42.843Z,97692.91
2023-04-14T01:41:12.349Z,97698.84
2023-04-14T01:43:42.491Z,97696.31
2023-04-14T01:46:13.907Z,97687.69
2023-04-14T01:48:44.736Z,97703.31
2023-04-14T01:51:13.838Z,97698.13
2023-04-14T01:53:43.890Z,97711.19
2023-04-14T01:56:12.976Z,97709.41
2023-04-14T01:58:42.246Z,97707.72
2023-04-14T02:01:09.351Z,97711.22
2023-04-14T02:03:37.243Z,97714.63
2023-04-14T02:06:05.478Z,97716.31
2023-04-14T02:08:33.100Z,97707.72
2023-04-14T02:11:02.427Z,97714.56
2023-04-14T02:13:30.682Z,97714.59
2023-04-14T02:15:59.332Z,97713.66
2023-04-14T02:18:28.371Z,97718.91
2023-04-14T02:20:57.854Z,97711.16
2023-04-14T02:23:24.519Z,97713.75
2023-04-14T02:26:13.792Z,97721.59
2023-04-14T02:29:00.050Z,97716.34
2023-04-14T02:31:30.319Z,97708.53
2023-04-14T02:34:00.920Z,97701.50
2023-04-14T02:36:43.526Z,97704.06
2023-04-14T02:39:15.113Z,97702.34
2023-04-14T02:41:44.849Z,97704.19
2023-04-14T02:44:21.694Z,97691.16
2023-04-14T02:47:03.849Z,97700.78
2023-04-14T02:49:40.274Z,97699.00
2023-04-14T02:52:09.772Z,97699.78
2023-04-14T02:54:40.004Z,97694.53
2023-04-14T02:57:07.334Z,97687.63
2023-04-14T02:59:34.817Z,97691.13
2023-04-14T03:02:05.048Z,97692.84
2023-04-14T03:04:34.710Z,97692.00
2023-04-14T03:07:03.269Z,97690.38
2023-04-14T03:09:30.833Z,97697.28
2023-04-14T03:11:58.778Z,97693.91
2023-04-14T03:14:27.270Z,97694.72
2023-04-14T03:16:54.893Z,97692.00
2023-04-14T03:19:23.332Z,97687.63
2023-04-14T03:21:51.252Z,97692.78
2023-04-14T03:24:24.855Z,97696.16
2023-04-14T03:26:57.432Z,97686.66
2023-04-14T03:29:31.571Z,97690.06
2023-04-14T03:32:01.473Z,97691.81
2023-04-14T03:34:31.497Z,97690.09
2023-04-14T03:36:59.718Z,97688.34
2023-04-14T03:39:29.004Z,97687.38
2023-04-14T03:41:57.343Z,97689.94
2023-04-14T03:44:26.525Z,97696.91
2023-04-14T03:46:54.997Z,97699.63
2023-04-14T03:49:24.391Z,97697.91
2023-04-14T03:51:53.517Z,97692.00
2023-04-14T03:54:23.832Z,97699.88
2023-04-14T03:56:52.313Z,97687.69
2023-04-14T03:59:22.067Z,97700.72
2023-04-14T04:01:49.954Z,97705.88
2023-04-14T04:04:18.073Z,97701.47
2023-04-14T04:06:45.011Z,97703.22
2023-04-14T04:09:15.930Z,97699.00
2023-04-14T04:11:44.214Z,97694.59
2023-04-14T04:14:13.170Z,97698.16
2023-04-14T04:16:43.042Z,97693.00
2023-04-14T04:19:14.053Z,97693.03
2023-04-14T04:21:43.520Z,97688.72
2023-04-14T04:24:12.588Z,97686.97
2023-04-14T04:26:39.612Z,97689.50
2023-04-14T04:29:07.162Z,97686.94
2023-04-14T04:31:34.672Z,97680.00
2023-04-14T04:34:03.640Z,97680.88
2023-04-14T04:36:31.847Z,97678.25
2023-04-14T04:38:59.020Z,97696.31
2023-04-14T04:41:28.830Z,97702.50
2023-04-14T04:43:56.647Z,97707.72
2023-04-14T04:46:55.694Z,97709.34
2023-04-14T04:49:22.769Z,97710.22
2023-04-14T04:51:49.769Z,97711.03
2023-04-14T04:54:16.511Z,97719.69
2023-04-14T04:56:43.212Z,97716.06
2023-04-14T04:59:10.930Z,97715.16
2023-04-14T05:01:37.837Z,97719.41
2023-04-14T05:04:04.435Z,97707.94
2023-04-14T05:06:34.580Z,97707.22
2023-04-14T05:09:01.771Z,97713.28
2023-04-14T05:11:28.649Z,97716.75
2023-04-14T05:13:55.567Z,97720.09
2023-04-14T05:16:22.306Z,97723.56
2023-04-14T05:18:49.200Z,97717.47
2023-04-14T05:21:16.228Z,97713.91
2023-04-14T05:23:44.306Z,97706.91
2023-04-14T05:26:39.077Z,97705.94
2023-04-14T05:29:01.986Z,97703.25
2023-04-14T05:31:28.781Z,97711.84
2023-04-14T05:33:55.443Z,97708.19
2023-04-14T05:36:22.045Z,97708.22
2023-04-14T05:38:48.714Z,97702.84
2023-04-14T05:41:15.714Z,97697.53
2023-04-14T05:43:42.377Z,97701.91
2023-04-14T05:46:08.958Z,97704.47
2023-04-14T05:48:37.778Z,97705.38
2023-04-14T05:51:04.866Z,97705.25
2023-04-14T05:53:31.546Z,97705.19
2023-04-14T05:55:58.225Z,97707.75
2023-04-14T05:58:26.882Z,97705.97
2023-04-14T06:00:53.709Z,97707.56
2023-04-14T06:03:20.582Z,97702.34
2023-04-14T06:05:48.335Z,97701.38
2023-04-14T06:08:15.077Z,97701.31
2023-04-14T06:10:41.806Z,97702.09
2023-04-14T06:13:08.961Z,97699.44
2023-04-14T06:15:35.802Z,97697.56
2023-04-14T06:18:02.476Z,97693.94
2023-04-14T06:20:32.021Z,97703.50
2023-04-14T06:23:01.041Z,97691.28
2023-04-14T06:25:27.844Z,97698.06
2023-04-14T06:27:54.686Z,97697.16
2023-04-14T06:30:21.301Z,97699.81
2023-04-14T06:32:51.684Z,97696.19
2023-04-14T06:35:32.031Z,97697.78
2023-04-14T06:38:00.133Z,97698.53
2023-04-14T06:40:27.431Z,97707.19
2023-04-14T06:42:54.276Z,97709.75
2023-04-14T06:45:21.204Z,97702.69
2023-04-14T06:47:48.102Z,97702.63
2023-04-14T06:50:14.815Z,97707.75
2023-04-14T06:52:41.974Z,97701.56
2023-04-14T06:55:09.156Z,97698.00
2023-04-14T06:57:35.835Z,97695.06
2023-04-14T07:00:04.653Z,97708.16
2023-04-14T07:02:31.352Z,97692.56
2023-04-14T07:04:58.097Z,97700.25
2023-04-14T07:07:24.836Z,97700.16
2023-04-14T07:09:52.126Z,97693.81
2023-04-14T07:12:18.931Z,97686.78
2023-04-14T07:14:52.168Z,97695.19
2023-04-14T07:17:20.110Z,97694.84
2023-04-14T07:19:47.125Z,97691.97
2023-04-14T07:22:13.785Z,97685.47
2023-04-14T07:24:40.939Z,97671.94
2023-04-14T07:27:07.616Z,97671.63
2023-04-14T07:29:35.370Z,97680.78
2023-04-14T07:32:02.474Z,97684.84
2023-04-14T07:34:29.230Z,97684.13
2023-04-14T07:36:55.914Z,97698.84
2023-04-14T07:39:23.851Z,97696.09
2023-04-14T07:41:50.743Z,97700.38
2023-04-14T07:44:17.453Z,97704.34
2023-04-14T07:46:44.247Z,97715.00
2023-04-14T07:49:11.070Z,97710.09
2023-04-14T07:51:38.272Z,97717.94
2023-04-14T07:54:06.341Z,97709.06
2023-04-14T07:56:33.254Z,97715.78
2023-04-14T07:59:00.261Z,97712.00
2023-04-14T08:01:27.246Z,97709.44
2023-04-14T08:03:54.286Z,97708.19
2023-04-14T08:06:21.429Z,97704.81
2023-04-14T08:08:48.167Z,97702.69
2023-04-14T08:11:14.797Z,97703.56
2023-04-14T08:13:42.813Z,97702.97
2023-04-14T08:16:09.579Z,97706.59
2023-04-14T08:18:37.232Z,97700.00
2023-04-14T08:21:04.081Z,97699.09
2023-04-14T08:23:30.922Z,97699.63
2023-04-14T08:25:57.687Z,97701.09
2023-04-14T08:28:24.810Z,97700.97
2023-04-14T08:30:51.488Z,97690.16
2023-04-14T08:33:18.127Z,97701.78
2023-04-14T08:35:44.813Z,97708.25
2023-04-14T08:38:11.766Z,97706.38
2023-04-14T08:40:43.703Z,97711.06
2023-04-14T08:43:13.138Z,97700.06
2023-04-14T08:45:42.394Z,97691.03
2023-04-14T08:48:12.184Z,97702.84
2023-04-14T08:50:49.588Z,97699.44
2023-04-14T08:53:18.222Z,97700.00
2023-04-14T08:55:45.702Z,97711.97
2023-04-14T08:58:12.709Z,97706.94
2023-04-14T09:00:40.518Z,97704.97
2023-04-14T09:03:09.460Z,97703.47
2023-04-14T09:05:36.614Z,97699.78
2023-04-14T09:08:04.633Z,97700.38
2023-04-14T09:10:32.220Z,97700.00
2023-04-14T09:12:58.959Z,97701.13
2023-04-14T09:15:29.293Z,97702.69
2023-04-14T09:17:56.718Z,97707.50
2023-04-14T09:20:38.635Z,97709.78
2023-04-14T09:23:12.555Z,97703.00
2023-04-14T09:25:40.927Z,97698.25
2023-04-14T09:28:08.408Z,97694.38
2023-04-14T09:30:35.083Z,97697.28
2023-04-14T09:33:08.395Z,97698.88
2023-04-14T09:35:46.829Z,97694.81
2023-04-14T09:38:13.443Z,97695.28
2023-04-14T09:40:43.239Z,97695.94
2023-04-14T09:43:22.416Z,97705.47
2023-04-14T09:45:49.270Z,97713.53
2023-04-14T09:48:16.397Z,97708.16
2023-04-14T09:51:03.620Z,97711.56
2023-04-14T09:53:35.878Z,97703.13
2023-04-14T09:56:06.128Z,97697.22
2023-04-14T09:58:34.649Z,97699.72
2023-04-14T10:01:05.123Z,97712.19
2023-04-14T10:03:40.296Z,97703.84
2023-04-14T10:06:16.513Z,97682.59
2023-04-14T10:08:51.737Z,97686.22
2023-04-14T10:11:21.307Z,97679.63
2023-04-14T10:13:49.831Z,97682.34
2023-04-14T10:16:17.632Z,97686.06
2023-04-14T10:18:44.422Z,97688.16
2023-04-14T10:21:11.787Z,97683.03
2023-04-14T10:23:39.828Z,97683.16
2023-04-14T10:26:10.712Z,97695.31
2023-04-14T10:28:43.954Z,97694.19
2023-04-14T10:31:39.448Z,97689.50
2023-04-14T10:34:14.066Z,97686.28
2023-04-14T10:36:41.602Z,97691.34
2023-04-14T10:39:10.219Z,97688.88
2023-04-14T10:41:42.915Z,97695.63
2023-04-14T10:44:24.968Z,97680.81
2023-04-14T10:46:52.454Z,97679.19
2023-04-14T10:49:19.162Z,97681.06
2023-04-14T10:51:49.764Z,97679.78
2023-04-14T10:54:19.506Z,97684.13
2023-04-14T10:57:12.788Z,97682.44
2023-04-14T10:59:43.646Z,97684.44
2023-04-14T11:02:28.654Z,97695.31
2023-04-14T11:05:13.583Z,97690.47
2023-04-14T11:07:49.321Z,97679.56
2023-04-14T11:10:24.947Z,97674.19
2023-04-14T11:12:56.568Z,97665.97
2023-04-14T11:15:23.716Z,97646.91
2023-04-14T11:17:51.788Z,97645.03
2023-04-14T11:20:25.230Z,97643.94
2023-04-14T11:22:54.336Z,97642.41
2023-04-14T11:25:27.541Z,97644.47
2023-04-14T11:27:54.264Z,97636.56
2023-04-14T11:30:21.978Z,97610.22
2023-04-14T11:32:57.493Z,97609.53
2023-04-14T11:35:26.207Z,97607.66
2023-04-14T11:37:57.844Z,97609.59
2023-04-14T11:40:26.766Z,97599.81
2023-04-14T11:42:55.873Z,97606.50
2023-04-14T11:45:23.621Z,97604.53
2023-04-14T11:48:04.017Z,97593.19
2023-04-14T11:50:33.326Z,97588.47
2023-04-14T11:53:00.799Z,97576.16
2023-04-14T11:55:28.004Z,97572.41
2023-04-14T11:57:55.986Z,97577.63
2023-04-14T12:00:23.010Z,97572.22
2023-04-14T12:02:50.821Z,97573.31
2023-04-14T12:05:25.495Z,97569.38
2023-04-14T12:08:00.009Z,97573.94
2023-04-14T12:10:27.854Z,97568.72
2023-04-14T12:13:08.797Z,97574.22
2023-04-14T12:15:38.137Z,97572.81
2023-04-14T12:18:09.923Z,97570.56
2023-04-14T12:20:47.136Z,97576.84
2023-04-14T12:23:15.634Z,97597.94
2023-04-14T12:25:42.231Z,97608.50
2023-04-14T12:28:09.186Z,97629.00
2023-04-14T12:30:37.421Z,97649.97
2023-04-14T12:33:14.199Z,97661.91
2023-04-14T12:35:41.015Z,97644.75
2023-04-14T12:38:14.768Z,97642.69
2023-04-14T12:40:44.862Z,97637.56
2023-04-14T12:43:16.896Z,97625.19
2023-04-14T12:45:48.330Z,97621.41
2023-04-14T12:48:18.603Z,97626.75
2023-04-14T12:50:45.601Z,97624.66
2023-04-14T12:53:26.342Z,97630.22
2023-04-14T12:56:24.118Z,97618.19
2023-04-14T12:58:51.724Z,97621.91
2023-04-14T13:01:21.076Z,97621.38
2023-04-14T13:03:56.167Z,97624.25
2023-04-14T13:06:24.804Z,97621.91
2023-04-14T13:08:55.353Z,97614.06
2023-04-14T13:11:23.752Z,97613.56
2023-04-14T13:13:52.618Z,97613.69
2023-04-14T13:16:20.459Z,97612.59
2023-04-14T13:18:49.094Z,97605.13
2023-04-14T13:21:16.026Z,97594.97
2023-04-14T13:23:45.842Z,97598.19
2023-04-14T13:26:15.898Z,97585.22
2023-04-14T13:28:42.818Z,97575.16
2023-04-14T13:31:11.653Z,97569.25
2023-04-14T13:33:38.488Z,97563.47
2023-04-14T13:36:05.476Z,97558.50
2023-04-14T13:38:32.264Z,97566.66
2023-04-14T13:41:02.638Z,97560.97
2023-04-14T13:43:30.162Z,97555.91
2023-04-14T13:45:58.819Z,97563.78
2023-04-14T13:48:26.494Z,97567.34
2023-04-14T13:50:54.598Z,97551.94
2023-04-14T13:53:21.448Z,97551.09
2023-04-14T13:55:48.125Z,97544.44
2023-04-14T13:58:15.082Z,97540.97
2023-04-14T14:00:42.346Z,97542.28
2023-04-14T14:03:09.650Z,97539.88
2023-04-14T14:05:36.521Z,97532.72
2023-04-14T14:08:03.638Z,97528.28
2023-04-14T14:10:30.765Z,97531.38
2023-04-14T14:12:57.567Z,97535.47
2023-04-14T14:15:24.310Z,97540.72
2023-04-14T14:17:53.266Z,97543.59
2023-04-14T14:20:20.424Z,97538.19
2023-04-14T14:22:47.443Z,97536.88
2023-04-14T14:25:20.542Z,97543.19
2023-04-14T14:27:48.703Z,97535.91
2023-04-14T14:30:16.069Z,97536.31
2023-04-14T14:32:42.705Z,97536.38
2023-04-14T14:35:09.776Z,97543.28
2023-04-14T14:37:36.788Z,97533.81
2023-04-14T14:40:04.181Z,97534.19
2023-04-14T14:42:31.429Z,97532.91
2023-04-14T14:44:58.052Z,97531.22
2023-04-14T14:47:25.182Z,97521.09
2023-04-14T14:49:59.686Z,97537.59
2023-04-14T14:52:31.549Z,97527.31
2023-04-14T14:54:58.395Z,97527.81
2023-04-14T14:57:25.930Z,97524.28
2023-04-14T14:59:53.059Z,97533.88
2023-04-14T15:02:22.198Z,97527.81
2023-04-14T15:04:49.926Z,97523.03
2023-04-14T15:07:16.956Z,97517.63
2023-04-14T15:09:46.252Z,97520.72
2023-04-14T15:12:13.034Z,97524.13
2023-04-14T15:14:39.719Z,97513.88
2023-04-14T15:17:06.391Z,97517.03
2023-04-14T15:19:33.137Z,97515.34
2023-04-14T15:22:01.491Z,97520.75
2023-04-14T15:24:28.257Z,97513.59
2023-04-14T15:26:54.966Z,97511.50
2023-04-14T15:29:25.165Z,97517.44
2023-04-14T15:31:52.007Z,97521.50
2023-04-14T15:34:18.689Z,97522.41
2023-04-14T15:36:45.569Z,97521.22
2023-04-14T15:39:12.427Z,97525.28
2023-04-14T15:41:39.022Z,97524.31
2023-04-14T15:44:05.974Z,97518.63
2023-04-14T15:46:32.898Z,97515.19
2023-04-14T15:48:59.679Z,97527.63
2023-04-14T15:51:26.353Z,97525.53
2023-04-14T15:53:53.195Z,97536.25
2023-04-14T15:56:23.482Z,97544.38
2023-04-14T15:58:50.855Z,97542.44
2023-04-14T16:01:17.850Z,97544.25
2023-04-14T16:03:44.788Z,97542.25
2023-04-14T16:06:11.589Z,97544.34
2023-04-14T16:08:38.342Z,97546.16
2023-04-14T16:11:05.225Z,97549.78
2023-04-14T16:13:31.989Z,97548.22
2023-04-14T16:15:58.839Z,97552.59
2023-04-14T16:18:25.535Z,97545.56
2023-04-14T16:20:52.293Z,97542.63
2023-04-14T16:23:19.050Z,97552.00
2023-04-14T16:25:51.828Z,97550.72
2023-04-14T16:28:18.862Z,97566.44
2023-04-14T16:30:46.001Z,97555.28
2023-04-14T16:33:13.358Z,97552.50
2023-04-14T16:35:40.377Z,97555.28
2023-04-14T16:38:08.856Z,97562.44
2023-04-14T16:40:54.375Z,97558.59
2023-04-14T16:43:21.204Z,97562.13
2023-04-14T16:45:47.931Z,97559.31
2023-04-14T16:48:14.693Z,97553.06
2023-04-14T16:50:42.805Z,97556.28
2023-04-14T16:53:09.625Z,97564.75
2023-04-14T16:55:36.265Z,97558.34
2023-04-14T16:58:03.417Z,97553.94
2023-04-14T17:00:30.789Z,97561.00
2023-04-14T17:02:57.959Z,97572.47
2023-04-14T17:05:24.709Z,97570.00
2023-04-14T17:07:51.632Z,97566.34
2023-04-14T17:10:18.453Z,97567.22
2023-04-14T17:12:46.753Z,97563.72
2023-04-14T17:15:13.723Z,97555.97
2023-04-14T17:17:40.443Z,97568.25
2023-04-14T17:20:07.992Z,97562.94
2023-04-14T17:22:34.946Z,97575.44
2023-04-14T17:25:04.917Z,97562.34
2023-04-14T17:27:32.081Z,97568.50
2023-04-14T17:29:59.242Z,97569.00
2023-04-14T17:32:26.644Z,97574.13
2023-04-14T17:34:53.589Z,97573.31
2023-04-14T17:37:20.586Z,97574.25
2023-04-14T17:39:49.374Z,97577.03
2023-04-14T17:42:16.097Z,97570.09
2023-04-14T17:44:42.903Z,97565.84
2023-04-14T17:47:15.741Z,97567.78
2023-04-14T17:49:43.237Z,97580.16
2023-04-14T17:52:11.142Z,97578.44
2023-04-14T17:54:37.855Z,97585.56
2023-04-14T17:57:04.741Z,97578.84
2023-04-14T17:59:31.872Z,97591.09
2023-04-14T18:01:58.848Z,97583.47
2023-04-14T18:04:25.698Z,97581.09
2023-04-14T18:06:53.162Z,97584.84
2023-04-14T18:09:19.755Z,97583.94
2023-04-14T18:11:46.553Z,97588.44
2023-04-14T18:14:13.899Z,97587.75
2023-04-14T18:16:40.960Z,97588.53
2023-04-14T18:19:07.687Z,97586.03
2023-04-14T18:21:34.653Z,97587.06
2023-04-14T18:26:30.993Z,97583.88
2023-04-14T18:28:57.919Z,97584.84
2023-04-14T18:31:25.481Z,97585.88
2023-04-14T18:33:52.099Z,97587.63
2023-04-14T18:36:18.796Z,97593.72
2023-04-14T18:38:45.710Z,97588.44
2023-04-14T18:41:12.329Z,97584.91
2023-04-14T18:43:39.643Z,97586.63
2023-04-14T18:46:06.750Z,97592.00
2023-04-14T18:48:33.567Z,97585.13
2023-04-14T18:51:02.583Z,97584.41
2023-04-14T18:53:29.393Z,97588.69
2023-04-14T18:55:56.073Z,97589.66
2023-04-14T18:58:23.103Z,97589.69
2023-04-14T19:00:49.784Z,97596.69
2023-04-14T19:03:17.266Z,97593.97
2023-04-14T19:05:44.382Z,97599.22
2023-04-14T19:08:11.056Z,97602.75
2023-04-14T19:10:37.728Z,97605.34
2023-04-14T19:13:04.532Z,97597.56
2023-04-14T19:15:31.255Z,97603.69
2023-04-14T19:17:57.850Z,97602.16
2023-04-14T19:20:24.960Z,97598.88
2023-04-14T19:22:51.657Z,97606.72
2023-04-14T19:25:18.668Z,97606.72
2023-04-14T19:27:45.381Z,97600.78
2023-04-14T19:30:12.589Z,97601.91
2023-04-14T19:32:39.906Z,97596.06
2023-04-14T19:35:07.890Z,97604.06
2023-04-14T19:37:35.188Z,97610.19
2023-04-14T19:40:03.689Z,97606.81
2023-04-14T19:42:30.434Z,97605.19
2023-04-14T19:44:57.616Z,97602.66
2023-04-14T19:47:24.442Z,97597.53
2023-04-14T19:49:52.111Z,97594.84
2023-04-14T19:52:22.410Z,97596.84
2023-04-14T19:54:50.001Z,97589.91
2023-04-14T19:57:16.973Z,97595.91
2023-04-14T19:59:44.391Z,97591.63
2023-04-14T20:02:13.513Z,97601.22
2023-04-14T20:04:40.741Z,97600.25
2023-04-14T20:07:07.783Z,97599.31
2023-04-14T20:09:34.882Z,97594.88
2023-04-14T20:12:02.548Z,97587.94
2023-04-14T20:14:29.567Z,97587.09
2023-04-14T20:16:56.979Z,97596.69
2023-04-14T20:19:24.563Z,97598.41
2023-04-14T20:21:51.397Z,97596.59
2023-04-14T20:24:18.266Z,97583.47
2023-04-14T20:26:45.172Z,97586.91
2023-04-14T20:29:12.379Z,97582.63
2023-04-14T20:31:39.834Z,97586.06
2023-04-14T20:34:06.561Z,97581.72
2023-04-14T20:36:36.053Z,97583.44
2023-04-14T20:39:06.148Z,97571.22
2023-04-14T20:41:33.907Z,97569.59
2023-04-14T20:44:00.858Z,97570.56
2023-04-14T20:46:28.137Z,97573.97
2023-04-14T20:48:54.891Z,97579.34
2023-04-14T20:51:21.584Z,97569.72
2023-04-14T20:53:48.713Z,97569.75
2023-04-14T20:56:15.294Z,97574.84
2023-04-14T20:58:41.960Z,97570.47
2023-04-14T21:01:09.390Z,97574.69
2023-04-14T21:03:36.397Z,97579.06
2023-04-14T21:06:03.228Z,97569.47
2023-04-14T21:08:29.946Z,97564.13
2023-04-14T21:11:15.040Z,97578.81
2023-04-14T21:15:30.715Z,97576.19
2023-04-14T21:16:30.632Z,97570.06
2023-04-14T21:18:57.687Z,97577.97
2023-04-14T21:21:24.448Z,97578.06
2023-04-14T21:23:51.395Z,97568.66
2023-04-14T21:26:19.323Z,97564.34
2023-04-14T21:28:46.219Z,97567.75
2023-04-14T21:31:13.010Z,97563.44
2023-04-14T21:33:41.810Z,97571.31
2023-04-14T21:36:09.880Z,97575.78
2023-04-14T21:38:37.636Z,97579.25
2023-04-14T21:41:04.481Z,97567.94
2023-04-14T21:43:31.110Z,97566.13
2023-04-14T21:45:57.949Z,97567.03
2023-04-14T21:48:24.782Z,97563.59
2023-04-14T21:50:51.399Z,97563.66
2023-04-14T21:53:18.210Z,97560.25
2023-04-14T21:55:44.917Z,97560.31
2023-04-14T21:58:11.721Z,97561.38
2023-04-14T22:00:38.348Z,97569.22
2023-04-14T22:03:05.303Z,97558.78
2023-04-14T22:05:32.272Z,97558.91
2023-04-14T22:07:58.899Z,97558.16
2023-04-14T22:10:32.328Z,97557.25
2023-04-14T22:13:03.078Z,97544.19
2023-04-14T22:15:29.669Z,97545.09
2023-04-14T22:17:56.538Z,97544.28
2023-04-14T22:20:23.974Z,97535.59
2023-04-14T22:22:50.578Z,97543.53
2023-04-14T22:25:17.279Z,97538.31
2023-04-14T22:27:43.877Z,97546.19
2023-04-14T22:30:11.919Z,97546.28
2023-04-14T22:32:38.569Z,97546.28
2023-04-14T22:35:05.545Z,97545.41
2023-04-14T22:37:32.903Z,97550.66
2023-04-14T22:40:02.468Z,97557.59
2023-04-14T22:42:29.313Z,97550.69
2023-04-14T22:44:55.880Z,97547.19
2023-04-14T22:47:22.527Z,97546.38
2023-04-14T22:49:49.196Z,97546.38
2023-04-14T22:52:15.815Z,97548.13
2023-04-14T22:54:42.346Z,97545.56
2023-04-14T22:57:10.507Z,97541.25
2023-04-14T22:59:38.011Z,97537.78
2023-04-14T23:02:04.771Z,97531.69
2023-04-14T23:04:31.564Z,97532.59
2023-04-14T23:06:58.218Z,97531.69
2023-04-14T23:09:25.004Z,97533.47
2023-04-14T23:11:52.040Z,97530.16
2023-04-14T23:14:18.601Z,97532.78
2023-04-14T23:16:45.242Z,97535.47
2023-04-14T23:19:12.016Z,97531.97
2023-04-14T23:21:39.050Z,97530.34
2023-04-14T23:24:06.827Z,97534.72
2023-04-14T23:26:33.708Z,97542.63
2023-04-14T23:29:01.094Z,97534.88
2023-04-14T23:31:28.254Z,97533.22
2023-04-14T23:33:55.076Z,97523.69
2023-04-14T23:36:22.555Z,97526.34
2023-04-14T23:38:49.586Z,97533.34
2023-04-14T23:41:17.054Z,97530.69
2023-04-14T23:43:44.061Z,97527.19
2023-04-14T23:46:10.787Z,97532.41
2023-04-14T23:48:37.970Z,97530.63
2023-04-14T23:51:19.186Z,97531.44
2023-04-14T23:53:47.359Z,97521.97
2023-04-14T23:56:14.293Z,97518.47
2023-04-14T23:58:41.205Z,97526.38
